Selected Arizona METAR Reports


Metar stations are listed by distance from this station - near to far. The 'official' reporting station for the Greater Phoenix area is KPHX - Phoenix/Sky Harbor.

KDVT - Phoenix/Deer Valley, Arizona, USA
Distance from station: NW 4mi, 7km
Updated: Mon 19 Feb 2018 0353 MST
Overcast
Overcast
 Wind from S
Wind: S 6 mph , 9 km/h
Temperature: 59°F , 15°C
Dew Point: 48°F , 9°C
Humidity: 68%
Barometer: 29.71 inHg , 1006.1 hPa
Clouds: Overcast
Visibility: 10 miles , 16 km
Cloud details: Mostly cloudy 3900 ft
Mostly cloudy 7000 ft
Overcast 8000 ft
2018/02/19 10:53 KDVT 191053Z AUTO 19005KT 10SM BKN039 BKN070 OVC080 15/09 A2971 RMK AO2 SLP045 T01500094
KSDL - Scottsdale, Arizona, USA
Distance from station: ESE 6mi, 9km
Updated: Mon 19 Feb 2018 0353 MST
Overcast
Overcast
 Wind from S
Wind: S 6 mph , 9 km/h
Temperature: 61°F , 16°C
Dew Point: 48°F , 9°C
Humidity: 63%
Barometer: 29.73 inHg , 1006.8 hPa
Clouds: Overcast
Visibility: 10 miles , 16 km
Cloud details: Partly cloudy 3800 ft
Mostly cloudy 4500 ft
Overcast 5500 ft
2018/02/19 10:53 KSDL 191053Z AUTO 17005KT 10SM SCT038 BKN045 OVC055 16/09 A2973 RMK AO2 SLP051 T01560094
 
KPHX - Phoenix/Sky Harbor, Arizona, USA
Distance from station: S 15mi, 24km
Updated: Mon 19 Feb 2018 0351 MST
Mostly cloudy
Mostly cloudy
 Wind from SSW
Wind: SSW 7 mph , 11 km/h
Temperature: 63°F , 17°C
Dew Point: 50°F , 10°C
Humidity: 64%
Barometer: 29.70 inHg , 1005.8 hPa
Clouds: Mostly cloudy
Visibility: 10 miles , 16 km
Cloud details: Partly cloudy 5000 ft
Mostly cloudy 7000 ft
2018/02/19 10:51 KPHX 191051Z 20006KT 10SM SCT050 BKN070 17/10 A2970 RMK AO2 SLP047 T01670100 $
KGEU - Glendale, Arizona, USA
Distance from station: WSW 19mi, 30km
Updated: Sun 18 Feb 2018 1847 MST
NOT Current
Mostly cloudy
Mostly cloudy
 Wind from calm
Wind: Calm
Temperature: 68°F , 20°C
Dew Point: 37°F , 3°C
Humidity: 33%
Barometer: 29.80 inHg , 1009.1 hPa
Clouds: Mostly cloudy
Visibility: 10 miles , 16 km
Cloud details: Few Clouds 7000 ft
Mostly cloudy 9000 ft
Mostly cloudy 20000 ft
2018/02/19 01:47 KGEU 190147Z 00000KT 10SM FEW070 BKN090 BKN200 20/03 A2980 RMK LAST
 
KFFZ - Mesa/Falcon Field, Arizona, USA
Distance from station: SE 21mi, 33km
Updated: Sun 18 Feb 2018 1947 MST
NOT Current
Mostly cloudy
Mostly cloudy
 Wind from S
Wind: S 5 mph , 7 km/h
Temperature: 66°F , 19°C
Dew Point: 39°F , 4°C
Humidity: 37%
Barometer: 29.80 inHg , 1009.1 hPa
Clouds: Mostly cloudy
Visibility: 20 miles , 32 km
Cloud details: Partly cloudy 10000 ft
Mostly cloudy 24000 ft
2018/02/19 02:47 KFFZ 190247Z 18004KT 20SM SCT100 BKN240 19/04 A2980
KLUF - Luke AFB/Glendale, Arizona, USA
Distance from station: WSW 23mi, 36km
Updated: Mon 19 Feb 2018 0438 MST
Mostly cloudy
Mostly cloudy
 Wind from SSW
Wind: SSW 16 mph , 26 km/h
Temperature: 59°F , 15°C
Dew Point: 52°F , 11°C
Humidity: 77%
Barometer: 29.69 inHg , 1005.4 hPa
Clouds: Mostly cloudy
Visibility: 10 miles , 16 km
Cloud details: Mostly cloudy 3600 ft
Mostly cloudy 7000 ft
2018/02/19 11:38 KLUF 191138Z AUTO 21014KT 10SM BKN036 BKN070 15/11 A2969 RMK AO2 SLPNO VISNO RWY21 $
 
KGYR - Goodyear Municipal, Arizona, USA
Distance from station: SW 26mi, 42km
Updated: Sun 18 Feb 2018 2047 MST
NOT Current
Partly cloudy
Partly cloudy
 Wind from S
Wind: S 13 mph , 20 km/h
Temperature: 63°F , 17°C
Dew Point: 37°F , 3°C
Humidity: 39%
Barometer: 29.77 inHg , 1008.1 hPa
Clouds: Partly cloudy
Visibility: 10 miles , 16 km
Cloud details: Few Clouds 9000 ft
Partly cloudy 20000 ft
2018/02/19 03:47 KGYR 190347Z 19011KT 10SM FEW090 SCT200 17/03 A2977 RMK LAST
KIWA - Chandler/Mesa, Arizona, USA
Distance from station: SE 32mi, 51km
Updated: Mon 19 Feb 2018 0435 MST
Overcast
Overcast
 Wind from S
Wind: S 14 mph , 22 km/h
Temperature: 61°F , 16°C
Dew Point: 50°F , 10°C
Humidity: 68%
Barometer: 29.75 inHg , 1007.5 hPa
Clouds: Overcast
Visibility: 10 miles , 16 km
Cloud details: Overcast 7000 ft
2018/02/19 11:35 KIWA 191135Z AUTO 19012KT 10SM OVC070 16/10 A2975 RMK AO2 T01590102
 
KBXK - Buckeye, Arizona, USA
Distance from station: WSW 42mi, 68km
Updated: Mon 19 Feb 2018 0435 MST
Clear
Clear
 Wind from S
Wind: S 7 mph , 11 km/h
Temperature: 55°F , 13°C
Dew Point: 55°F , 13°C
Humidity: 100%
Barometer: 29.72 inHg , 1006.4 hPa
Clouds: Clear
Visibility: 10 miles , 16 km
2018/02/19 11:35 KBXK 191135Z AUTO 18006KT 10SM CLR 13/13 A2972 RMK AO1
KCGZ - Casa Grande, Arizona, USA
Distance from station: SSE 50mi, 81km
Updated: Mon 19 Feb 2018 0356 MST

 Wind from S
Wind: S 13 mph , 20 km/h
Temperature: 57°F , 14°C
Dew Point: 52°F , 11°C
Humidity: 82%
Barometer: 29.77 inHg , 1008.1 hPa
Visibility: 10 miles , 16 km
2018/02/19 10:56 KCGZ 191056Z AUTO 19011KT 10SM 14/11 A2977 RMK AO2 SLP072 T01440106 $
 
KPAN - Payson, Arizona, USA
Distance from station: NE 57mi, 91km
Updated: Mon 19 Feb 2018 0435 MST
Nearby thunderstorm, Drizzle, Overcast
Nearby thunderstorm, Drizzle, Overcast
 Wind from varies
Wind: varies 8 mph , 13 km/h
Temperature: 43°F , 6°C
Wind Chill: 38°F , 3°C
Dew Point: 41°F , 5°C
Humidity: 93%
Barometer: 29.73 inHg , 1006.8 hPa
Summary: Nearby thunderstorm, Drizzle
Clouds: Overcast
Visibility: 10 miles , 16 km
Cloud details: Partly cloudy 1000 ft
Mostly cloudy 1500 ft
Overcast 3100 ft
2018/02/19 11:35 KPAN 191135Z AUTO VRB07KT 150V220 10SM VCTS DZ SCT010 BKN015 OVC031 06/05 A2973 RMK AO2 LTG DSNT N
KGBN - Gila Bend (aaf), Arizona, USA
Distance from station: SW 68mi, 109km
Updated: Thu 20 Jul 2017 0757 MST
NOT Current
Partly cloudy
Partly cloudy
 Wind from calm
Wind: Calm
Temperature: 86°F , 30°C
Heat Index: 89°F , 32°C
Dew Point: 68°F , 20°C
Humidity: 55%
Barometer: 29.97 inHg , 1014.9 hPa
Clouds: Partly cloudy
Visibility: 10 miles , 16 km
Cloud details: Few Clouds 10000 ft
Partly cloudy 15000 ft
2017/07/20 14:57 KGBN 201457Z 00000KT 10SM FEW100 SCT150 30/20 A2997 RMK A02 NO SLP
 
KPRC - Prescott, Arizona, USA
Distance from station: NNW 73mi, 118km
Updated: Mon 19 Feb 2018 0408 MST
Partly cloudy
Partly cloudy
 Wind from SSW
Wind: SSW 22 mph , 35 km/h, Gust: 35 mph , 56 km/h
Temperature: 46°F , 8°C
Wind Chill: 38°F , 3°C
Dew Point: 36°F , 2°C
Humidity: 66%
Barometer: 29.65 inHg , 1004.1 hPa
Clouds: Partly cloudy
Visibility: 10 miles , 16 km
Cloud details: Partly cloudy 2900 ft
Partly cloudy 3500 ft
2018/02/19 11:08 KPRC 191108Z AUTO 20019G30KT 10SM SCT029 SCT035 08/02 A2965 RMK AO2 PK WND 20030/1106 PRESFR T00780022
KSEZ - Sedona, Arizona, USA
Distance from station: N 84mi, 135km
Updated: Mon 19 Feb 2018 0435 MST
Light rain, Overcast
Light rain, Overcast
 Wind from SSE
Wind: SSE 18 mph , 30 km/h, Gust: 23 mph , 37 km/h
Temperature: 45°F , 7°C
Wind Chill: 37°F , 3°C
Dew Point: 43°F , 6°C
Humidity: 93%
Barometer: 29.67 inHg , 1004.7 hPa
Summary: Light rain
Clouds: Overcast
Visibility: 10 miles , 16 km
Cloud details: Mostly cloudy 1400 ft
Mostly cloudy 2800 ft
Overcast 4800 ft
2018/02/19 11:35 KSEZ 191135Z AUTO 16016G20KT 10SM -RA BKN014 BKN028 OVC048 07/06 A2967 RMK AO2 LTG DSNT SE P0004
 
KFLG - Flagstaff, Arizona, USA
Distance from station: N 105mi, 168km
Updated: Mon 19 Feb 2018 0357 MST
Few Clouds
Few Clouds
 Wind from SW
Wind: SW 25 mph , 41 km/h, Gust: 37 mph , 59 km/h
Temperature: 36°F , 2°C
Wind Chill: 24°F , -4°C
Dew Point: 32°F , 0°C
Humidity: 87%
Barometer: 29.64 inHg , 1003.7 hPa
Clouds: Few Clouds
Visibility: 10 miles , 16 km
Cloud details: Few Clouds 1100 ft
2018/02/19 10:57 KFLG 191057Z AUTO 22022G32KT 10SM FEW011 02/00 A2964 RMK AO2 PK WND 21035/1032 UPB43E52 SLP994 P0000 T00170000
KRYN - Tucson/Ryan Field, Arizona, USA
Distance from station: SSE 114mi, 184km
Updated: Sun 18 Feb 2018 1945 MST
NOT Current
Partly cloudy
Partly cloudy
 Wind from SSW
Wind: SSW 10 mph , 17 km/h
Temperature: 61°F , 16°C
Dew Point: 48°F , 9°C
Humidity: 63%
Barometer: 29.89 inHg , 1012.2 hPa
Clouds: Partly cloudy
Visibility: 10 miles , 16 km
Cloud details: Partly cloudy 10000 ft
2018/02/19 02:45 KRYN 190245Z 20009KT 10SM SCT100 16/09 A2989 RMK LAST
 
KCMR - Williams Clark, Arizona, USA
Distance from station: N 115mi, 185km
Updated: Mon 19 Feb 2018 0435 MST
Mostly cloudy
Mostly cloudy
 Wind from SSW
Wind: SSW 29 mph , 46 km/h, Gust: 40 mph , 65 km/h
Temperature: 37°F , 3°C
Wind Chill: 25°F , -4°C
Dew Point: 30°F , -1°C
Humidity: 75%
Barometer: 29.61 inHg , 1002.7 hPa
Clouds: Mostly cloudy
Visibility: 10 miles , 16 km
Cloud details: Few Clouds 2000 ft
Partly cloudy 2700 ft
Mostly cloudy 3700 ft
2018/02/19 11:35 KCMR 191135Z AUTO 20025G35KT 10SM FEW020 SCT027 BKN037 03/M01 A2961 RMK AO2
KINW - Winslow, Arizona, USA
Distance from station: NE 121mi, 194km
Updated: Mon 19 Feb 2018 0356 MST
Few Clouds
Few Clouds
 Wind from S
Wind: S 31 mph , 50 km/h, Gust: 40 mph , 65 km/h
Temperature: 46°F , 8°C
Wind Chill: 36°F , 2°C
Dew Point: 36°F , 2°C
Humidity: 66%
Barometer: 29.65 inHg , 1004.1 hPa
Clouds: Few Clouds
Visibility: 10 miles , 16 km
Cloud details: Few Clouds 3400 ft
2018/02/19 10:56 KINW 191056Z AUTO 19027G35KT 10SM FEW034 08/02 A2965 RMK AO2 PK WND 20035/1054 SLP000 T00780017
 
KTUS - Tucson, Arizona, USA
Distance from station: SSE 121mi, 195km
Updated: Mon 19 Feb 2018 0353 MST
Mostly cloudy
Mostly cloudy
 Wind from SSW
Wind: SSW 8 mph , 13 km/h
Temperature: 59°F , 15°C
Dew Point: 48°F , 9°C
Humidity: 68%
Barometer: 29.82 inHg , 1009.8 hPa
Clouds: Mostly cloudy
Visibility: 10 miles , 16 km
Cloud details: Mostly cloudy 8500 ft
2018/02/19 10:53 KTUS 191053Z AUTO 20007KT 10SM BKN085 15/09 A2982 RMK AO2 SLP068 T01500089 $
KDMA - Davis AFB/Tucson, Arizona, USA
Distance from station: SE 122mi, 196km
Updated: Mon 19 Feb 2018 0358 MST
Mostly cloudy
Mostly cloudy
 Wind from ESE
Wind: ESE 3 mph , 6 km/h
Temperature: 55°F , 13°C
Dew Point: 52°F , 11°C
Humidity: 88%
Barometer: 29.80 inHg , 1009.1 hPa
Clouds: Mostly cloudy
Visibility: 10 miles , 16 km
Cloud details: Mostly cloudy 7500 ft
2018/02/19 10:58 KDMA 191058Z AUTO 12003KT 10SM BKN075 13/11 A2980 RMK AO2 SLP066 T01270106
 
KSOW - Show Low Municipal, Arizona, USA
Distance from station: ENE 123mi, 198km
Updated: Mon 19 Feb 2018 0435 MST
Rain, Overcast
Rain, Overcast
 Wind from SW
Wind: SW 22 mph , 35 km/h
Temperature: 39°F , 4°C
Wind Chill: 29°F , -2°C
Dew Point: 37°F , 3°C
Humidity: 93%
Barometer: 29.72 inHg , 1006.4 hPa
Summary: Rain
Clouds: Overcast
Visibility: 2 miles , 3 km
Cloud details: Few Clouds 100 ft
Mostly cloudy 1300 ft
Overcast 1900 ft
2018/02/19 11:35 KSOW 191135Z AUTO 22019KT 2SM RA FEW001 BKN013 OVC019 04/03 A2972 RMK AO2
KSAD - Safford, Arizona, USA
Distance from station: ESE 148mi, 238km
Updated: Mon 19 Feb 2018 0351 MST
Overcast
Overcast
 Wind from E
Wind: E 5 mph , 7 km/h
Temperature: 52°F , 11°C
Dew Point: 48°F , 9°C
Humidity: 88%
Barometer: 29.77 inHg , 1008.1 hPa
Clouds: Overcast
Visibility: 10 miles , 16 km
Cloud details: Partly cloudy 6000 ft
Mostly cloudy 8000 ft
Overcast 9000 ft
2018/02/19 10:51 KSAD 191051Z AUTO 09004KT 10SM SCT060 BKN080 OVC090 11/09 A2977 RMK AO2 RAE0957 SLP054 P0000 T01110094